createdAt,value
2022-10-09T00:01:03.317Z,30.43
2022-10-09T00:03:30.982Z,28.97
2022-10-09T00:05:58.833Z,28.90
2022-10-09T00:08:26.443Z,28.57
2022-10-09T00:10:55.418Z,28.57
2022-10-09T00:13:23.545Z,29.60
2022-10-09T00:15:51.089Z,29.43
2022-10-09T00:18:19.733Z,29.40
2022-10-09T00:20:48.102Z,30.07
2022-10-09T00:23:17.397Z,30.37
2022-10-09T00:25:52.098Z,29.23
2022-10-09T00:28:21.101Z,30.60
2022-10-09T00:30:48.839Z,29.23
2022-10-09T00:33:16.468Z,28.37
2022-10-09T00:35:44.154Z,30.40
2022-10-09T00:38:11.858Z,28.67
2022-10-09T00:40:40.269Z,29.63
2022-10-09T00:43:13.306Z,29.37
2022-10-09T00:45:45.033Z,29.60
2022-10-09T00:48:13.527Z,28.77
2022-10-09T00:50:44.739Z,30.33
2022-10-09T00:53:16.737Z,30.27
2022-10-09T00:55:44.381Z,29.43
2022-10-09T00:58:13.765Z,28.07
2022-10-09T01:00:42.774Z,28.67
2022-10-09T01:03:10.318Z,29.83
2022-10-09T01:05:49.400Z,28.60
2022-10-09T01:08:21.441Z,29.10
2022-10-09T01:10:55.348Z,60.73
2022-10-09T01:13:29.127Z,52.03
2022-10-09T01:16:01.207Z,65.10
2022-10-09T01:18:38.136Z,64.90
2022-10-09T01:21:11.833Z,30.50
2022-10-09T01:23:54.060Z,62.80
2022-10-09T01:26:35.694Z,66.40
2022-10-09T01:29:08.893Z,69.67
2022-10-09T01:31:40.357Z,71.50
2022-10-09T01:34:09.351Z,75.23
2022-10-09T01:36:38.024Z,71.87
2022-10-09T01:39:08.595Z,70.33
2022-10-09T01:41:36.325Z,63.30
2022-10-09T01:44:15.445Z,57.90
2022-10-09T01:46:43.091Z,48.80
2022-10-09T01:49:18.550Z,30.20
2022-10-09T01:51:52.718Z,35.53
2022-10-09T01:54:30.170Z,47.70
2022-10-09T01:57:03.333Z,45.63
2022-10-09T01:59:37.272Z,29.30
2022-10-09T02:02:06.073Z,30.10
2022-10-09T02:04:34.905Z,30.93
2022-10-09T02:07:02.970Z,51.60
2022-10-09T02:09:31.462Z,52.10
2022-10-09T02:12:05.293Z,41.43
2022-10-09T02:14:34.796Z,42.60
2022-10-09T02:17:06.767Z,52.07
2022-10-09T02:19:39.971Z,61.40
2022-10-09T02:22:14.002Z,76.70
2022-10-09T02:24:43.201Z,43.87
2022-10-09T02:27:12.256Z,38.33
2022-10-09T02:29:42.589Z,32.53
2022-10-09T02:32:10.959Z,30.67
2022-10-09T02:34:38.665Z,35.63
2022-10-09T02:37:06.854Z,30.53
2022-10-09T02:39:34.618Z,31.53
2022-10-09T02:42:02.281Z,30.63
2022-10-09T02:44:30.151Z,31.20
2022-10-09T02:46:59.030Z,31.77
2022-10-09T02:49:26.583Z,29.93
2022-10-09T02:51:54.219Z,30.50
2022-10-09T02:54:21.767Z,29.63
2022-10-09T02:56:49.284Z,30.07
2022-10-09T02:59:17.021Z,29.10
2022-10-09T03:01:45.828Z,28.77
2022-10-09T03:04:14.793Z,30.30
2022-10-09T03:06:42.678Z,30.97
2022-10-09T03:09:10.194Z,30.77
2022-10-09T03:11:37.746Z,30.57
2022-10-09T03:14:05.253Z,30.50
2022-10-09T03:16:32.849Z,29.80
2022-10-09T03:19:00.438Z,31.40
2022-10-09T03:21:29.350Z,31.13
2022-10-09T03:23:57.362Z,32.13
2022-10-09T03:26:27.661Z,30.90
2022-10-09T03:28:56.629Z,32.53
2022-10-09T03:31:50.695Z,37.80
2022-10-09T03:34:14.487Z,44.10
2022-10-09T03:36:43.474Z,53.30
2022-10-09T03:39:11.351Z,30.80
2022-10-09T03:41:38.906Z,30.27
2022-10-09T03:44:06.625Z,29.83
2022-10-09T03:46:34.304Z,31.23
2022-10-09T03:49:01.894Z,31.83
2022-10-09T03:51:29.435Z,33.27
2022-10-09T03:53:58.349Z,31.73
2022-10-09T03:56:26.051Z,35.00
2022-10-09T03:58:53.585Z,35.63
2022-10-09T04:01:21.157Z,30.00
2022-10-09T04:03:48.938Z,30.70
2022-10-09T04:06:17.495Z,30.73
2022-10-09T04:08:45.027Z,30.80
2022-10-09T04:11:13.903Z,65.90
2022-10-09T04:13:41.450Z,80.27
2022-10-09T04:16:12.545Z,59.63
2022-10-09T04:18:40.565Z,61.93
2022-10-09T04:21:08.712Z,67.10
2022-10-09T04:23:36.253Z,49.80
2022-10-09T04:26:03.850Z,47.97
2022-10-09T04:28:33.494Z,31.73
2022-10-09T04:31:01.382Z,37.57
2022-10-09T04:33:29.502Z,31.97
2022-10-09T04:35:57.949Z,43.47
2022-10-09T04:38:25.754Z,84.00
2022-10-09T04:40:57.779Z,35.67
2022-10-09T04:43:25.783Z,58.43
2022-10-09T04:45:54.767Z,26.57
2022-10-09T04:48:22.693Z,26.67
2022-10-09T04:50:50.411Z,26.50
2022-10-09T04:53:17.974Z,27.03
2022-10-09T04:55:46.278Z,27.20
2022-10-09T04:58:14.936Z,27.17
2022-10-09T05:00:43.412Z,26.80
2022-10-09T05:03:12.901Z,26.33
2022-10-09T05:05:40.570Z,26.00
2022-10-09T05:08:08.129Z,26.70
2022-10-09T05:10:35.667Z,27.30
2022-10-09T05:13:03.206Z,26.97
2022-10-09T05:15:30.905Z,27.27
2022-10-09T05:17:58.645Z,26.93
2022-10-09T05:20:27.586Z,26.67
2022-10-09T05:22:55.125Z,26.20
2022-10-09T05:25:22.630Z,26.30
2022-10-09T05:27:50.217Z,26.10
2022-10-09T05:30:17.975Z,26.33
2022-10-09T05:32:45.508Z,27.27
2022-10-09T05:35:13.040Z,26.53
2022-10-09T05:37:45.122Z,60.80
2022-10-09T05:40:12.742Z,58.80
2022-10-09T05:42:40.286Z,59.40
2022-10-09T05:45:09.394Z,57.30
2022-10-09T05:47:36.905Z,57.10
2022-10-09T05:50:04.845Z,56.47
2022-10-09T05:52:32.365Z,53.30
2022-10-09T05:55:01.298Z,52.73
2022-10-09T05:57:29.190Z,51.53
2022-10-09T05:59:56.693Z,47.90
2022-10-09T06:02:24.325Z,47.27
2022-10-09T06:04:51.927Z,45.20
2022-10-09T06:07:19.433Z,44.57
2022-10-09T06:09:46.958Z,42.33
2022-10-09T06:12:15.826Z,40.67
2022-10-09T06:14:43.357Z,41.27
2022-10-09T06:17:10.893Z,38.60
2022-10-09T06:19:38.398Z,38.60
2022-10-09T06:22:05.930Z,37.20
2022-10-09T06:24:33.447Z,41.10
2022-10-09T06:27:01.070Z,38.27
2022-10-09T06:29:30.517Z,39.40
2022-10-09T06:31:58.199Z,36.77
2022-10-09T06:34:25.970Z,36.67
2022-10-09T06:36:53.504Z,34.63
2022-10-09T06:39:21.094Z,34.70
2022-10-09T06:41:48.627Z,34.93
2022-10-09T06:44:17.348Z,34.80
2022-10-09T06:46:49.807Z,36.70
2022-10-09T06:49:17.378Z,34.93
2022-10-09T06:51:45.031Z,36.50
2022-10-09T06:54:14.211Z,38.87
2022-10-09T06:56:42.077Z,38.23
2022-10-09T06:59:12.010Z,39.97
2022-10-09T07:01:39.705Z,41.20
2022-10-09T07:04:11.739Z,41.60
2022-10-09T07:06:42.002Z,42.23
2022-10-09T07:09:12.338Z,45.40
2022-10-09T07:11:42.973Z,46.10
2022-10-09T07:14:11.925Z,46.90
2022-10-09T07:16:42.391Z,47.43
2022-10-09T07:19:12.859Z,50.30
2022-10-09T07:21:42.198Z,49.20
2022-10-09T07:24:11.186Z,51.97
2022-10-09T07:26:41.405Z,53.00
2022-10-09T07:29:10.157Z,56.20
2022-10-09T07:31:37.713Z,58.57
2022-10-09T07:34:06.230Z,56.90
2022-10-09T07:36:35.667Z,57.80
2022-10-09T07:39:03.352Z,56.87
2022-10-09T07:41:30.987Z,56.30
2022-10-09T07:43:58.958Z,58.47
2022-10-09T07:46:33.023Z,56.83
2022-10-09T07:49:01.922Z,51.10
2022-10-09T07:51:30.671Z,54.97
2022-10-09T07:54:01.743Z,102.97
2022-10-09T07:56:31.083Z,61.90
2022-10-09T07:59:00.161Z,58.70
2022-10-09T08:01:29.283Z,74.43
2022-10-09T08:03:57.536Z,122.97
2022-10-09T08:06:25.211Z,57.97
2022-10-09T08:08:54.324Z,46.70
2022-10-09T08:11:24.695Z,42.07
2022-10-09T08:13:53.655Z,42.07
2022-10-09T08:16:22.772Z,39.03
2022-10-09T08:18:50.454Z,39.13
2022-10-09T08:21:19.742Z,38.70
2022-10-09T08:23:47.439Z,39.13
2022-10-09T08:26:16.221Z,39.37
2022-10-09T08:28:45.459Z,36.77
2022-10-09T08:31:14.444Z,38.00
2022-10-09T08:33:42.229Z,36.50
2022-10-09T08:36:14.349Z,36.47
2022-10-09T08:38:47.642Z,36.87
2022-10-09T08:41:24.289Z,37.57
2022-10-09T08:44:01.067Z,35.93
2022-10-09T08:46:34.409Z,33.80
2022-10-09T08:49:05.242Z,36.07
2022-10-09T08:51:39.146Z,36.63
2022-10-09T08:54:14.427Z,35.50
2022-10-09T08:56:42.023Z,36.00
2022-10-09T08:59:12.793Z,35.97
2022-10-09T09:01:48.595Z,35.63
2022-10-09T09:04:34.314Z,35.50
2022-10-09T09:07:11.563Z,36.10
2022-10-09T09:09:47.960Z,36.67
2022-10-09T09:12:21.621Z,35.67
2022-10-09T09:15:02.328Z,36.00
2022-10-09T09:17:38.374Z,35.90
2022-10-09T09:20:15.958Z,37.87
2022-10-09T09:22:47.373Z,36.30
2022-10-09T09:25:20.803Z,34.73
2022-10-09T09:27:48.981Z,33.70
2022-10-09T09:30:21.578Z,36.17
2022-10-09T09:32:57.538Z,36.30
2022-10-09T09:35:30.927Z,36.60
2022-10-09T09:37:58.461Z,36.50
2022-10-09T09:40:36.863Z,36.23
2022-10-09T09:43:16.477Z,36.57
2022-10-09T09:45:46.132Z,37.13
2022-10-09T09:48:17.342Z,38.80
2022-10-09T09:50:52.981Z,36.10
2022-10-09T09:53:36.724Z,35.27
2022-10-09T09:56:04.912Z,33.00
2022-10-09T09:58:37.034Z,36.10
2022-10-09T10:01:07.595Z,34.97
2022-10-09T10:03:36.724Z,32.83
2022-10-09T10:06:04.759Z,34.90
2022-10-09T10:08:34.702Z,35.07
2022-10-09T10:11:04.284Z,35.47
2022-10-09T10:13:35.758Z,33.43
2022-10-09T10:16:04.493Z,32.90
2022-10-09T10:18:40.148Z,34.00
2022-10-09T10:21:12.249Z,31.10
2022-10-09T10:23:42.852Z,34.00
2022-10-09T10:26:21.522Z,31.47
2022-10-09T10:28:55.098Z,31.80
2022-10-09T10:31:48.607Z,32.23
2022-10-09T10:34:23.384Z,30.83
2022-10-09T10:37:02.478Z,30.00
2022-10-09T10:39:37.821Z,30.47
2022-10-09T10:42:16.514Z,29.27
2022-10-09T10:44:51.609Z,29.23
2022-10-09T10:47:24.750Z,28.23
2022-10-09T10:49:54.034Z,26.83
2022-10-09T10:52:36.214Z,29.37
2022-10-09T10:55:16.909Z,28.07
2022-10-09T10:57:52.929Z,26.33
2022-10-09T11:00:20.663Z,27.10
2022-10-09T11:03:02.771Z,25.00
2022-10-09T11:05:42.689Z,23.27
2022-10-09T11:08:26.315Z,24.10
2022-10-09T11:11:03.225Z,24.03
2022-10-09T11:13:34.905Z,22.73
2022-10-09T11:16:15.240Z,23.20
2022-10-09T11:18:56.073Z,20.30
2022-10-09T11:21:36.503Z,19.60
2022-10-09T11:24:26.663Z,16.57
2022-10-09T11:27:03.640Z,16.07
2022-10-09T11:29:38.150Z,16.00
2022-10-09T11:32:13.620Z,13.43
2022-10-09T11:34:45.771Z,14.30
2022-10-09T11:37:21.362Z,12.83
2022-10-09T11:39:49.038Z,12.60
2022-10-09T11:42:25.134Z,12.20
2022-10-09T11:45:03.634Z,12.93
2022-10-09T11:47:40.790Z,10.97
2022-10-09T11:50:23.710Z,11.30
2022-10-09T11:52:59.136Z,10.97
2022-10-09T11:55:28.554Z,11.60
2022-10-09T11:57:56.168Z,10.63
2022-10-09T12:00:32.030Z,10.63
2022-10-09T12:03:03.166Z,10.97
2022-10-09T12:05:39.689Z,11.17
2022-10-09T12:08:15.354Z,9.37
2022-10-09T12:10:51.967Z,9.90
2022-10-09T12:13:32.783Z,9.63
2022-10-09T12:16:01.094Z,9.23
2022-10-09T12:18:31.149Z,9.87
2022-10-09T12:21:02.342Z,9.50
2022-10-09T12:23:35.318Z,8.77
2022-10-09T12:26:03.679Z,9.80
2022-10-09T12:28:36.577Z,8.67
2022-10-09T12:31:08.140Z,8.70
2022-10-09T12:33:39.046Z,9.17
2022-10-09T12:36:13.258Z,8.40
2022-10-09T12:38:42.698Z,8.80
2022-10-09T12:41:20.133Z,9.10
2022-10-09T12:43:49.726Z,9.07
2022-10-09T12:46:27.499Z,8.83
2022-10-09T12:48:55.471Z,8.70
2022-10-09T12:51:26.135Z,9.77
2022-10-09T12:53:55.880Z,7.77
2022-10-09T12:56:26.398Z,7.53
2022-10-09T12:58:54.473Z,7.97
2022-10-09T13:01:22.824Z,7.37
2022-10-09T13:03:56.132Z,8.83
2022-10-09T13:06:26.109Z,8.70
2022-10-09T13:08:57.640Z,7.60
2022-10-09T13:11:31.418Z,7.23
2022-10-09T13:13:59.330Z,8.03
2022-10-09T13:16:27.097Z,8.03
2022-10-09T13:18:57.852Z,7.60
2022-10-09T13:21:31.511Z,8.07
2022-10-09T13:24:10.378Z,7.30
2022-10-09T13:26:39.666Z,8.50
2022-10-09T13:29:08.434Z,10.40
2022-10-09T13:31:36.952Z,8.60
2022-10-09T13:34:12.469Z,7.60
2022-10-09T13:36:40.100Z,8.00
2022-10-09T13:39:14.428Z,7.30
2022-10-09T13:41:43.822Z,10.03
2022-10-09T13:44:11.489Z,7.30
2022-10-09T13:46:39.030Z,8.63
2022-10-09T13:49:06.631Z,8.07
2022-10-09T13:51:34.628Z,8.57
2022-10-09T13:54:02.162Z,8.00
2022-10-09T13:56:31.044Z,9.47
2022-10-09T13:58:58.690Z,6.80
2022-10-09T14:01:26.320Z,7.93
2022-10-09T14:03:53.874Z,8.43
2022-10-09T14:06:22.348Z,6.97
2022-10-09T14:08:50.658Z,7.37
2022-10-09T14:11:18.245Z,7.20
2022-10-09T14:13:47.120Z,7.20
2022-10-09T14:16:15.666Z,8.37
2022-10-09T14:18:43.250Z,7.67
2022-10-09T14:21:15.004Z,6.60
2022-10-09T14:23:43.756Z,8.27
2022-10-09T14:26:11.530Z,8.70
2022-10-09T14:28:39.225Z,8.50
2022-10-09T14:31:08.781Z,8.47
2022-10-09T14:33:36.646Z,8.30
2022-10-09T14:36:08.757Z,7.93
2022-10-09T14:38:39.851Z,8.33
2022-10-09T14:41:07.787Z,8.97
2022-10-09T14:43:35.803Z,8.70
2022-10-09T14:46:06.417Z,8.57
2022-10-09T14:48:36.089Z,8.50
2022-10-09T14:51:04.741Z,8.37
2022-10-09T14:53:32.793Z,8.13
2022-10-09T14:56:03.444Z,8.57
2022-10-09T14:58:31.658Z,8.30
2022-10-09T15:00:59.898Z,10.47
2022-10-09T15:03:29.054Z,6.90
2022-10-09T15:05:59.536Z,7.97
2022-10-09T15:08:27.597Z,9.27
2022-10-09T15:10:55.606Z,8.13
2022-10-09T15:13:23.121Z,6.83
2022-10-09T15:15:50.653Z,10.67
2022-10-09T15:18:18.614Z,7.00
2022-10-09T15:20:47.069Z,5.97
2022-10-09T15:23:16.022Z,5.93
2022-10-09T15:25:49.189Z,5.67
2022-10-09T15:28:17.380Z,7.30
2022-10-09T15:30:45.992Z,8.90
2022-10-09T15:33:13.701Z,6.40
2022-10-09T15:35:41.647Z,6.50
2022-10-09T15:38:15.026Z,7.77
2022-10-09T15:40:46.140Z,6.67
2022-10-09T15:43:14.842Z,8.00
2022-10-09T15:45:42.889Z,9.83
2022-10-09T15:48:16.461Z,10.73
2022-10-09T15:50:46.335Z,23.77
2022-10-09T15:53:15.065Z,18.30
2022-10-09T15:55:45.958Z,19.60
2022-10-09T15:58:13.957Z,18.00
2022-10-09T16:00:43.893Z,15.07
2022-10-09T16:03:11.705Z,13.33
2022-10-09T16:05:40.346Z,12.73
2022-10-09T16:08:08.786Z,13.10
2022-10-09T16:10:46.338Z,9.30
2022-10-09T16:13:17.703Z,9.00
2022-10-09T16:15:47.333Z,8.93
2022-10-09T16:18:16.708Z,8.33
2022-10-09T16:20:44.697Z,7.53
2022-10-09T16:23:12.880Z,10.80
2022-10-09T16:25:41.481Z,10.53
2022-10-09T16:28:11.697Z,10.37
2022-10-09T16:30:42.210Z,7.80
2022-10-09T16:33:12.624Z,9.03
2022-10-09T16:35:40.791Z,8.60
2022-10-09T16:38:08.946Z,7.60
2022-10-09T16:43:24.048Z,13.87
2022-10-09T16:45:52.910Z,19.13
2022-10-09T16:48:20.462Z,18.73
2022-10-09T16:50:48.383Z,17.67
2022-10-09T16:53:15.901Z,17.80
2022-10-09T16:55:43.433Z,18.70
2022-10-09T16:58:10.972Z,17.90
2022-10-09T17:00:38.540Z,5.77
2022-10-09T17:03:07.461Z,7.00
2022-10-09T17:05:39.175Z,6.07
2022-10-09T17:08:06.739Z,6.00
2022-10-09T17:10:34.304Z,6.10
2022-10-09T17:13:01.825Z,6.20
2022-10-09T17:15:29.354Z,6.30
2022-10-09T17:17:56.888Z,6.67
2022-10-09T17:20:25.778Z,5.80
2022-10-09T17:22:53.293Z,6.00
2022-10-09T17:25:20.831Z,6.10
2022-10-09T17:27:48.375Z,6.10
2022-10-09T17:30:16.121Z,6.00
2022-10-09T17:32:43.701Z,5.40
2022-10-09T17:35:11.611Z,5.70
2022-10-09T17:37:40.498Z,5.90
2022-10-09T17:40:08.733Z,5.50
2022-10-09T17:42:36.283Z,5.80
2022-10-09T17:45:04.003Z,5.60
2022-10-09T17:47:31.571Z,6.43
2022-10-09T17:49:59.099Z,6.47
2022-10-09T17:52:26.701Z,6.30
2022-10-09T17:54:55.688Z,6.70
2022-10-09T17:57:23.259Z,6.40
2022-10-09T17:59:50.774Z,7.10
2022-10-09T18:02:18.321Z,7.20
2022-10-09T18:04:45.868Z,7.40
2022-10-09T18:07:13.830Z,8.10
2022-10-09T18:09:41.357Z,7.90
2022-10-09T18:12:10.238Z,12.70
2022-10-09T18:14:37.754Z,14.70
2022-10-09T18:17:05.274Z,14.70
2022-10-09T18:19:32.865Z,12.33
2022-10-09T18:22:00.393Z,13.10
2022-10-09T18:24:28.031Z,12.67
2022-10-09T18:26:55.586Z,11.80
2022-10-09T18:29:24.518Z,12.70
2022-10-09T18:31:55.556Z,12.20
2022-10-09T18:34:23.221Z,13.53
2022-10-09T18:36:52.178Z,12.67
2022-10-09T18:39:21.433Z,11.73
2022-10-09T18:41:48.982Z,12.73
2022-10-09T18:44:19.962Z,13.23
2022-10-09T18:46:52.561Z,16.87
2022-10-09T18:49:23.573Z,14.70
2022-10-09T18:51:52.158Z,17.57
2022-10-09T18:54:22.862Z,16.77
2022-10-09T18:56:50.538Z,16.90
2022-10-09T18:59:21.678Z,37.03
2022-10-09T19:01:50.776Z,59.47
2022-10-09T19:04:18.956Z,48.60
2022-10-09T19:06:46.633Z,46.83
2022-10-09T19:09:14.724Z,42.20
2022-10-09T19:11:42.302Z,47.00
2022-10-09T19:14:09.842Z,49.03
2022-10-09T19:16:37.380Z,50.90
2022-10-09T19:19:07.111Z,34.37
2022-10-09T19:21:36.272Z,27.20
2022-10-09T19:24:06.131Z,33.70
2022-10-09T19:26:35.200Z,28.33
2022-10-09T19:29:02.829Z,29.03
2022-10-09T19:31:31.891Z,28.70
2022-10-09T19:34:00.802Z,24.40
2022-10-09T19:36:33.048Z,24.40
2022-10-09T19:39:00.677Z,23.70
2022-10-09T19:41:28.401Z,25.20
2022-10-09T19:43:56.052Z,26.73
2022-10-09T19:46:23.872Z,27.33
2022-10-09T19:48:51.819Z,26.73
2022-10-09T19:51:21.505Z,26.80
2022-10-09T19:53:52.064Z,28.90
2022-10-09T19:56:21.766Z,27.40
2022-10-09T19:58:50.598Z,28.43
2022-10-09T20:01:19.789Z,27.67
2022-10-09T20:03:48.538Z,27.33
2022-10-09T20:06:16.579Z,28.43
2022-10-09T20:08:45.116Z,28.57
2022-10-09T20:11:14.101Z,28.40
2022-10-09T20:13:43.039Z,30.10
2022-10-09T20:16:12.947Z,28.40
2022-10-09T20:18:42.144Z,31.60
2022-10-09T20:21:10.559Z,30.90
2022-10-09T20:23:38.100Z,29.73
2022-10-09T20:26:08.406Z,29.53
2022-10-09T20:28:38.390Z,29.73
2022-10-09T20:31:08.110Z,30.40
2022-10-09T20:33:36.600Z,32.00
2022-10-09T20:36:05.414Z,31.53
2022-10-09T20:38:32.997Z,31.50
2022-10-09T20:41:04.551Z,31.53
2022-10-09T20:43:32.078Z,32.03
2022-10-09T20:46:00.943Z,31.13
2022-10-09T20:48:28.477Z,31.00
2022-10-09T20:50:55.995Z,32.60
2022-10-09T20:53:23.521Z,32.27
2022-10-09T20:55:51.030Z,32.77
2022-10-09T20:58:18.698Z,32.13
2022-10-09T21:00:46.278Z,33.27
2022-10-09T21:03:15.158Z,32.63
2022-10-09T21:05:43.682Z,32.27
2022-10-09T21:08:11.437Z,32.87
2022-10-09T21:10:43.695Z,32.90
2022-10-09T21:13:11.233Z,33.13
2022-10-09T21:15:43.639Z,33.23
2022-10-09T21:18:11.750Z,33.53
2022-10-09T21:20:41.958Z,32.70
2022-10-09T21:23:10.432Z,33.17
2022-10-09T21:25:38.698Z,33.00
2022-10-09T21:28:06.774Z,33.63
2022-10-09T21:30:41.611Z,33.57
2022-10-09T21:33:09.606Z,35.30
2022-10-09T21:35:41.339Z,61.43
2022-10-09T21:38:12.875Z,148.17
2022-10-09T21:40:40.510Z,51.63
2022-10-09T21:43:10.442Z,52.60
2022-10-09T21:45:38.721Z,58.30
2022-10-09T21:48:07.009Z,41.20
2022-10-09T21:50:36.238Z,36.83
2022-10-09T21:53:05.515Z,40.77
2022-10-09T21:55:33.203Z,40.80
2022-10-09T21:58:00.768Z,43.10
2022-10-09T22:00:28.307Z,49.40
2022-10-09T22:02:55.867Z,52.97
2022-10-09T22:05:23.408Z,43.10
2022-10-09T22:07:51.014Z,42.30
2022-10-09T22:10:20.547Z,72.40
2022-10-09T22:12:48.239Z,107.63
2022-10-09T22:15:16.050Z,77.40
2022-10-09T22:17:43.578Z,72.83
2022-10-09T22:20:11.140Z,77.73
2022-10-09T22:22:38.671Z,75.80
2022-10-09T22:25:07.309Z,73.63
2022-10-09T22:27:36.298Z,66.17
2022-10-09T22:30:04.217Z,85.97
2022-10-09T22:32:31.750Z,46.23
2022-10-09T22:34:59.311Z,162.80
2022-10-09T22:37:26.922Z,35.17
2022-10-09T22:39:54.426Z,36.03
2022-10-09T22:42:21.991Z,47.23
2022-10-09T22:44:50.861Z,34.57
2022-10-09T22:47:18.390Z,33.50
2022-10-09T22:49:46.168Z,33.33
2022-10-09T22:52:13.682Z,34.93
2022-10-09T22:54:41.225Z,52.87
2022-10-09T22:57:08.858Z,32.40
2022-10-09T22:59:36.441Z,32.17
2022-10-09T23:02:05.478Z,87.07
2022-10-09T23:04:33.174Z,35.00
2022-10-09T23:07:01.919Z,64.57
2022-10-09T23:09:32.233Z,61.80
2022-10-09T23:12:00.931Z,60.80
2022-10-09T23:14:28.851Z,64.57
2022-10-09T23:16:56.454Z,60.87
2022-10-09T23:19:25.338Z,62.20
2022-10-09T23:21:52.865Z,61.73
2022-10-09T23:24:20.389Z,59.37
2022-10-09T23:26:51.780Z,61.13
2022-10-09T23:29:20.679Z,59.13
2022-10-09T23:31:49.385Z,56.80
2022-10-09T23:34:17.007Z,61.53
2022-10-09T23:36:45.886Z,63.97
2022-10-09T23:39:14.222Z,59.90
2022-10-09T23:41:41.827Z,55.07
2022-10-09T23:44:09.414Z,55.37
2022-10-09T23:46:37.672Z,56.10
2022-10-09T23:49:06.469Z,53.67
2022-10-09T23:51:34.128Z,58.57
2022-10-09T23:54:03.025Z,49.00
2022-10-09T23:56:33.144Z,58.73
2022-10-09T23:59:02.244Z,58.60
